createdAt,value
2022-10-05T00:01:27.115Z,31.60
2022-10-05T00:06:21.050Z,31.80
2022-10-05T00:11:16.009Z,34.03
2022-10-05T00:16:13.483Z,36.25
2022-10-05T00:21:19.752Z,35.83
2022-10-05T00:26:19.163Z,35.28
2022-10-05T00:31:18.852Z,38.00
2022-10-05T00:36:12.223Z,37.10
2022-10-05T00:41:18.943Z,35.47
2022-10-05T00:46:30.628Z,36.10
2022-10-05T00:51:30.112Z,37.92
2022-10-05T00:56:36.025Z,36.05
2022-10-05T01:01:43.408Z,33.53
2022-10-05T01:07:00.571Z,34.45
2022-10-05T01:12:21.928Z,35.38
2022-10-05T01:17:22.932Z,37.50
2022-10-05T01:22:27.671Z,38.45
2022-10-05T01:27:40.758Z,36.83
2022-10-05T01:32:42.323Z,36.63
2022-10-05T01:37:52.951Z,37.00
2022-10-05T01:43:10.868Z,36.33
2022-10-05T01:48:36.260Z,37.85
2022-10-05T01:53:40.791Z,37.72
2022-10-05T01:58:40.097Z,38.08
2022-10-05T02:03:42.836Z,36.55
2022-10-05T02:08:42.201Z,36.43
2022-10-05T02:14:08.253Z,36.05
2022-10-05T02:19:35.761Z,35.08
2022-10-05T02:24:54.067Z,31.77
2022-10-05T02:29:50.486Z,29.02
2022-10-05T02:34:44.631Z,29.77
2022-10-05T02:40:06.230Z,31.27
2022-10-05T02:45:25.587Z,32.25
2022-10-05T02:50:36.789Z,32.25
2022-10-05T02:56:03.554Z,34.80
2022-10-05T03:01:10.290Z,33.97
2022-10-05T03:06:19.229Z,34.72
2022-10-05T03:11:27.341Z,37.67
2022-10-05T03:16:33.748Z,37.33
2022-10-05T03:21:49.433Z,34.97
2022-10-05T03:27:05.309Z,35.50
2022-10-05T03:32:19.475Z,37.72
2022-10-05T03:37:56.275Z,36.90
2022-10-05T03:43:04.295Z,33.67
2022-10-05T03:48:10.746Z,34.67
2022-10-05T03:53:12.631Z,35.50
2022-10-05T03:58:44.796Z,36.17
2022-10-05T04:03:50.583Z,36.50
2022-10-05T04:08:52.181Z,34.70
2022-10-05T04:14:02.072Z,31.77
2022-10-05T04:19:04.567Z,33.92
2022-10-05T04:24:00.952Z,36.88
2022-10-05T04:29:23.108Z,35.25
2022-10-05T04:34:47.899Z,33.35
2022-10-05T04:39:49.969Z,35.15
2022-10-05T04:44:59.319Z,28.05
2022-10-05T04:50:07.628Z,30.08
2022-10-05T04:55:19.097Z,30.85
2022-10-05T05:00:30.693Z,32.25
2022-10-05T05:06:15.318Z,32.03
2022-10-05T05:11:24.544Z,30.05
2022-10-05T05:16:41.039Z,28.23
2022-10-05T05:21:50.023Z,27.38
2022-10-05T05:27:24.258Z,22.92
2022-10-05T05:32:41.285Z,26.40
2022-10-05T05:37:53.556Z,23.52
2022-10-05T05:43:11.770Z,24.52
2022-10-05T05:48:27.766Z,26.80
2022-10-05T05:53:48.511Z,28.67
2022-10-05T05:58:54.699Z,29.20
2022-10-05T06:03:59.153Z,29.63
2022-10-05T06:08:56.664Z,30.88
2022-10-05T06:14:14.174Z,35.08
2022-10-05T06:19:19.057Z,36.80
2022-10-05T06:24:22.159Z,39.38
2022-10-05T06:29:22.187Z,41.28
2022-10-05T06:34:37.118Z,42.92
2022-10-05T06:40:30.332Z,42.05
2022-10-05T06:45:27.940Z,41.70
2022-10-05T06:50:49.786Z,35.83
2022-10-05T06:56:18.577Z,35.42
2022-10-05T07:01:39.368Z,36.30
2022-10-05T07:06:47.263Z,34.47
2022-10-05T07:11:57.403Z,32.88
2022-10-05T07:17:04.887Z,34.08
2022-10-05T07:22:19.444Z,32.35
2022-10-05T07:27:35.351Z,34.22
2022-10-05T07:32:49.969Z,36.17
2022-10-05T07:37:58.618Z,36.60
2022-10-05T07:43:01.301Z,38.67
2022-10-05T07:48:02.458Z,42.33
2022-10-05T07:53:06.438Z,40.30
2022-10-05T07:58:32.029Z,36.15
2022-10-05T08:03:36.696Z,38.50
2022-10-05T08:08:45.784Z,37.28
2022-10-05T08:13:57.212Z,36.40
2022-10-05T08:19:07.281Z,33.08
2022-10-05T08:24:25.340Z,40.38
2022-10-05T08:29:36.129Z,35.28
2022-10-05T08:34:52.278Z,38.17
2022-10-05T08:40:27.660Z,41.95
2022-10-05T08:45:39.093Z,39.72
2022-10-05T08:50:41.815Z,38.90
2022-10-05T08:55:43.896Z,37.78
2022-10-05T09:00:52.728Z,37.20
2022-10-05T09:05:45.459Z,35.97
2022-10-05T09:15:47.704Z,37.58
2022-10-05T09:20:53.514Z,35.78
2022-10-05T09:26:30.332Z,36.40
2022-10-05T09:31:43.170Z,40.30
2022-10-05T09:37:26.809Z,35.85
2022-10-05T09:42:48.622Z,34.00
2022-10-05T09:48:26.987Z,30.63
2022-10-05T09:53:57.542Z,30.95
2022-10-05T09:59:10.900Z,31.42
2022-10-05T10:09:40.908Z,20.17
2022-10-05T10:14:49.717Z,21.63
2022-10-05T10:20:01.339Z,22.50
2022-10-05T10:25:13.676Z,23.05
2022-10-05T10:30:36.558Z,23.48
2022-10-05T10:35:38.362Z,28.17
2022-10-05T10:40:38.949Z,26.77
2022-10-05T10:45:54.757Z,29.38
2022-10-05T10:51:02.393Z,30.30
2022-10-05T10:56:22.649Z,21.67
2022-10-05T11:01:46.860Z,26.38
2022-10-05T11:06:59.467Z,24.33
2022-10-05T11:12:08.252Z,24.50
2022-10-05T11:18:01.589Z,23.55
2022-10-05T11:23:27.540Z,21.92
2022-10-05T11:28:55.806Z,20.35
2022-10-05T11:34:04.682Z,20.70
2022-10-05T11:39:09.558Z,22.15
2022-10-05T11:44:17.951Z,17.73
2022-10-05T11:49:35.103Z,23.35
2022-10-05T11:55:12.781Z,15.57
2022-10-05T12:00:26.644Z,17.67
2022-10-05T12:05:26.326Z,21.77
2022-10-05T12:10:25.598Z,24.33
2022-10-05T12:15:44.559Z,27.50
2022-10-05T12:20:46.739Z,25.80
2022-10-05T12:25:47.070Z,23.98
2022-10-05T12:31:09.627Z,21.75
2022-10-05T12:36:09.112Z,24.60
2022-10-05T12:41:25.657Z,22.15
2022-10-05T12:46:37.103Z,21.83
2022-10-05T12:51:51.935Z,19.02
2022-10-05T12:57:10.676Z,14.38
2022-10-05T13:02:16.253Z,15.25
2022-10-05T13:07:46.582Z,14.40
2022-10-05T13:12:52.381Z,14.15
2022-10-05T13:17:57.611Z,13.35
2022-10-05T13:23:28.403Z,12.52
2022-10-05T13:28:41.784Z,14.50
2022-10-05T13:33:53.060Z,13.95
2022-10-05T13:39:12.281Z,13.23
2022-10-05T13:44:24.357Z,14.07
2022-10-05T13:50:08.958Z,12.45
2022-10-05T13:55:23.200Z,10.27
2022-10-05T14:00:26.520Z,11.50
2022-10-05T14:05:30.077Z,12.50
2022-10-05T14:10:57.430Z,12.15
2022-10-05T14:16:21.423Z,12.65
2022-10-05T14:21:19.170Z,12.98
2022-10-05T14:26:20.947Z,9.52
2022-10-05T14:31:18.186Z,12.40
2022-10-05T14:36:53.990Z,12.20
2022-10-05T14:41:49.766Z,11.15
2022-10-05T14:46:55.784Z,9.77
2022-10-05T14:51:54.232Z,11.15
2022-10-05T14:57:15.014Z,10.65
2022-10-05T15:02:27.067Z,10.82
2022-10-05T15:07:32.372Z,9.65
2022-10-05T15:12:32.865Z,9.82
2022-10-05T15:17:32.210Z,9.48
2022-10-05T15:22:47.059Z,10.27
2022-10-05T15:27:57.534Z,9.90
2022-10-05T15:33:07.576Z,9.15
2022-10-05T15:38:21.849Z,9.63
2022-10-05T15:43:21.447Z,8.18
2022-10-05T15:48:30.187Z,9.00
2022-10-05T15:53:35.912Z,8.43
2022-10-05T15:58:43.777Z,7.50
2022-10-05T16:03:46.922Z,7.72
2022-10-05T16:08:58.677Z,7.53
2022-10-05T16:14:31.288Z,7.32
2022-10-05T16:19:28.956Z,7.47
2022-10-05T16:24:44.268Z,7.45
2022-10-05T16:29:57.140Z,6.95
2022-10-05T16:35:02.516Z,6.65
2022-10-05T16:40:00.635Z,6.10
2022-10-05T16:45:16.794Z,8.25
2022-10-05T16:50:32.384Z,8.00
2022-10-05T16:55:37.537Z,6.90
2022-10-05T17:00:45.905Z,6.57
2022-10-05T17:06:08.431Z,7.80
2022-10-05T17:11:04.212Z,7.60
2022-10-05T17:16:34.387Z,7.03
2022-10-05T17:21:46.205Z,7.22
2022-10-05T17:27:04.276Z,7.73
2022-10-05T17:32:09.752Z,8.32
2022-10-05T17:37:39.480Z,9.57
2022-10-05T17:42:34.681Z,10.05
2022-10-05T17:47:59.782Z,9.35
2022-10-05T17:53:37.363Z,9.95
2022-10-05T17:58:31.497Z,11.70
2022-10-05T18:03:46.297Z,11.63
2022-10-05T18:08:39.519Z,12.05
2022-10-05T18:18:43.308Z,14.38
2022-10-05T18:23:37.368Z,15.38
2022-10-05T18:30:09.418Z,15.57
2022-10-05T18:35:21.077Z,14.02
2022-10-05T18:40:36.910Z,13.70
2022-10-05T18:46:09.508Z,13.93
2022-10-05T18:51:27.987Z,13.75
2022-10-05T18:56:41.977Z,15.20
2022-10-05T19:02:11.810Z,14.75
2022-10-05T19:07:11.893Z,14.43
2022-10-05T19:12:16.556Z,16.33
2022-10-05T19:17:47.108Z,15.70
2022-10-05T19:22:49.974Z,16.27
2022-10-05T19:27:55.703Z,16.65
2022-10-05T19:33:23.221Z,16.10
2022-10-05T19:38:46.662Z,16.25
2022-10-05T19:44:04.853Z,15.40
2022-10-05T19:48:59.167Z,15.52
2022-10-05T19:53:56.137Z,16.67
2022-10-05T19:58:51.264Z,15.05
2022-10-05T20:03:48.219Z,16.20
2022-10-05T20:09:02.889Z,17.08
2022-10-05T20:13:55.558Z,18.13
2022-10-05T20:19:08.147Z,19.17
2022-10-05T20:24:21.270Z,17.38
2022-10-05T20:29:16.120Z,18.85
2022-10-05T20:34:10.314Z,17.88
2022-10-05T20:39:04.499Z,18.83
2022-10-05T20:43:58.108Z,18.08
2022-10-05T20:48:54.210Z,18.95
2022-10-05T20:53:48.316Z,19.15
2022-10-05T20:58:44.795Z,18.67
2022-10-05T21:03:38.447Z,19.27
2022-10-05T21:08:32.451Z,18.63
2022-10-05T21:13:27.575Z,19.05
2022-10-05T21:18:21.784Z,18.10
2022-10-05T21:23:15.800Z,18.73
2022-10-05T21:28:09.637Z,18.85
2022-10-05T21:33:03.583Z,18.65
2022-10-05T21:37:58.206Z,18.80
2022-10-05T21:42:52.383Z,19.58
2022-10-05T21:47:46.421Z,18.60
2022-10-05T21:52:41.111Z,19.17
2022-10-05T21:57:38.552Z,19.08
2022-10-05T22:02:32.833Z,19.92
2022-10-05T22:07:25.892Z,18.75
2022-10-05T22:12:20.855Z,16.83
2022-10-05T22:17:25.653Z,19.48
2022-10-05T22:22:19.991Z,18.60
2022-10-05T22:27:13.943Z,19.75
2022-10-05T22:32:08.102Z,20.05
2022-10-05T22:37:02.647Z,18.85
2022-10-05T22:41:56.963Z,17.95
2022-10-05T22:46:50.044Z,21.05
2022-10-05T22:51:44.056Z,20.70
2022-10-05T22:56:38.261Z,20.23
2022-10-05T23:01:32.060Z,19.80
2022-10-05T23:06:28.523Z,22.30
2022-10-05T23:11:27.699Z,23.40
2022-10-05T23:16:21.942Z,23.98
2022-10-05T23:21:16.313Z,26.02
2022-10-05T23:26:12.167Z,26.33
2022-10-05T23:31:09.275Z,27.60
2022-10-05T23:36:25.922Z,27.98
2022-10-05T23:41:20.287Z,29.30
2022-10-05T23:46:15.069Z,29.40
2022-10-05T23:51:11.547Z,29.65
2022-10-05T23:56:06.088Z,29.02
